This is the latest recevied weather packets stored in our database for station/object K1NOT-WX. If no packets are shown the sender has not sent any weather packets the latest 10 day(s).
| Time | Temp. | Humidity | Pressure | Rain* | Wind** | Luminosity | Snow |
|---|---|---|---|---|---|---|---|
| 1777111933 | 6.11° C | 78% | 1005.8 hPa | 0 mm | - | - | - |
| 1777111033 | 6.67° C | 70% | 1005.8 hPa | 0 mm | - | - | - |
| 1777110133 | 6.67° C | 66% | 1005.8 hPa | 0 mm | - | - | - |
| 1777109233 | 7.22° C | 65% | 1005.8 hPa | 0 mm | - | - | - |
| 1777108333 | 7.22° C | 62% | 1006.1 hPa | 0 mm | - | - | - |
| 1777107433 | 7.22° C | 64% | 1006.4 hPa | 0 mm | - | - | - |
| 1777106533 | 8.33° C | 58% | 1006.4 hPa | 0 mm | - | - | - |
| 1777105633 | 8.33° C | 55% | 1006.1 hPa | 0 mm | - | - | - |
| 1777104733 | 8.33° C | 56% | 1006.1 hPa | 0 mm | - | - | - |
| 1777103833 | 9.44° C | 54% | 1006.1 hPa | 0 mm | - | - | - |
| 1777102933 | 9.44° C | 52% | 1006.1 hPa | 0 mm | - | - | - |
| 1777102033 | 10° C | 52% | 1006.1 hPa | 0 mm | - | - | - |
| 1777101133 | 10° C | 49% | 1006.4 hPa | 0 mm | - | - | - |
| 1777100233 | 9.44° C | 52% | 1006.1 hPa | 0 mm | - | - | - |
| 1777099332 | 10° C | 49% | 1006.1 hPa | 0 mm | - | - | - |
| 1777098432 | 9.44° C | 53% | 1006.1 hPa | 0 mm | - | - | - |
| 1777097532 | 10.56° C | 48% | 1006.4 hPa | 0 mm | - | - | - |
| 1777096633 | 10.56° C | 46% | 1006.8 hPa | 0 mm | - | - | - |
| 1777095732 | 11.11° C | 45% | 1006.4 hPa | 0 mm | - | - | - |
| 1777094832 | 11.11° C | 43% | 1006.8 hPa | 0 mm | - | - | - |
| 1777093932 | 10.56° C | 46% | 1006.4 hPa | 0 mm | - | - | - |
| 1777093032 | 10.56° C | 46% | 1006.8 hPa | 0 mm | - | - | - |
| 1777092132 | 11.11° C | 46% | 1006.4 hPa | 0 mm | - | - | - |
| 1777091232 | 11.67° C | 42% | 1006.8 hPa | 0 mm | - | - | - |
| 1777090332 | 12.22° C | 42% | 1006.4 hPa | 0 mm | - | - | - |
* Rain latest hour (hover to see other rain measurements)
** Current wind speed in m/s (hover to see current wind gust speed)